createdAt,value
2018-07-02T00:01:16.821Z,15.60
2018-07-02T00:03:52.877Z,15.60
2018-07-02T00:06:47.724Z,15.50
2018-07-02T00:09:22.617Z,15.50
2018-07-02T00:11:57.241Z,15.50
2018-07-02T00:14:32.032Z,15.50
2018-07-02T00:17:07.091Z,15.40
2018-07-02T00:19:41.351Z,15.40
2018-07-02T00:22:16.240Z,15.30
2018-07-02T00:24:52.261Z,15.20
2018-07-02T00:27:28.219Z,15.20
2018-07-02T00:30:04.676Z,15.10
2018-07-02T00:32:39.011Z,15.00
2018-07-02T00:35:13.792Z,15.00
2018-07-02T00:37:48.140Z,14.90
2018-07-02T00:40:22.711Z,14.80
2018-07-02T00:42:58.057Z,14.80
2018-07-02T00:45:33.543Z,14.70
2018-07-02T00:48:08.448Z,14.80
2018-07-02T00:50:43.783Z,14.70
2018-07-02T00:53:19.130Z,14.70
2018-07-02T00:55:56.928Z,14.60
2018-07-02T00:58:31.890Z,14.60
2018-07-02T01:01:06.249Z,14.60
2018-07-02T01:03:40.327Z,14.60
2018-07-02T01:06:14.694Z,14.50
2018-07-02T01:08:48.794Z,14.50
2018-07-02T01:11:24.446Z,14.50
2018-07-02T01:13:59.132Z,14.40
2018-07-02T01:16:33.446Z,14.30
2018-07-02T01:19:08.740Z,14.30
2018-07-02T01:21:45.620Z,14.30
2018-07-02T01:26:57.723Z,14.20
2018-07-02T01:29:33.296Z,14.10
2018-07-02T01:32:10.155Z,14.10
2018-07-02T01:34:47.407Z,14.00
2018-07-02T01:37:22.946Z,14.00
2018-07-02T01:39:57.276Z,13.90
2018-07-02T01:42:32.619Z,13.90
2018-07-02T01:45:07.795Z,13.80
2018-07-02T01:47:43.319Z,13.80
2018-07-02T01:50:18.024Z,13.80
2018-07-02T01:52:56.070Z,13.80
2018-07-02T01:55:30.704Z,13.80
2018-07-02T01:58:04.840Z,13.70
2018-07-02T02:00:39.748Z,13.70
2018-07-02T02:03:14.034Z,13.60
2018-07-02T02:05:50.015Z,13.60
2018-07-02T02:08:25.238Z,13.50
2018-07-02T02:10:59.490Z,13.50
2018-07-02T02:13:35.300Z,13.50
2018-07-02T02:16:09.959Z,13.50
2018-07-02T02:18:44.712Z,13.50
2018-07-02T02:21:20.071Z,13.60
2018-07-02T02:23:54.821Z,13.60
2018-07-02T02:26:30.110Z,13.50
2018-07-02T02:29:05.456Z,13.50
2018-07-02T02:31:40.802Z,13.30
2018-07-02T02:34:15.140Z,13.30
2018-07-02T02:36:50.268Z,13.30
2018-07-02T02:39:26.616Z,13.30
2018-07-02T02:42:00.737Z,13.30
2018-07-02T02:44:35.898Z,13.20
2018-07-02T02:47:13.261Z,13.10
2018-07-02T02:49:49.142Z,13.10
2018-07-02T02:52:23.797Z,13.00
2018-07-02T02:54:58.133Z,13.00
2018-07-02T02:57:32.501Z,13.00
2018-07-02T03:02:43.548Z,13.10
2018-07-02T03:05:19.887Z,13.00
2018-07-02T03:07:54.232Z,12.90
2018-07-02T03:10:29.351Z,12.80
2018-07-02T03:13:03.958Z,12.80
2018-07-02T03:15:39.001Z,12.70
2018-07-02T03:18:13.544Z,12.70
2018-07-02T03:20:49.208Z,12.60
2018-07-02T03:23:24.205Z,12.50
2018-07-02T03:25:59.045Z,12.50
2018-07-02T03:28:35.231Z,12.50
2018-07-02T03:31:10.353Z,12.50
2018-07-02T03:33:47.143Z,12.60
2018-07-02T03:36:24.641Z,12.60
2018-07-02T03:38:59.475Z,12.60
2018-07-02T03:41:35.000Z,12.60
2018-07-02T03:44:09.571Z,12.60
2018-07-02T03:46:44.213Z,12.70
2018-07-02T03:49:19.564Z,12.70
2018-07-02T03:51:54.865Z,12.70
2018-07-02T03:54:30.490Z,12.70
2018-07-02T03:57:09.416Z,12.60
2018-07-02T03:59:44.463Z,12.60
2018-07-02T04:02:20.108Z,12.60
2018-07-02T04:04:56.255Z,12.60
2018-07-02T04:07:30.575Z,12.60
2018-07-02T04:10:05.664Z,12.60
2018-07-02T04:12:41.455Z,12.70
2018-07-02T04:15:16.504Z,12.70
2018-07-02T04:17:50.923Z,12.70
2018-07-02T04:20:26.168Z,12.70
2018-07-02T04:23:00.894Z,12.70
2018-07-02T04:25:36.251Z,12.70
2018-07-02T04:28:11.681Z,12.80
2018-07-02T04:30:54.205Z,12.90
2018-07-02T04:33:30.979Z,13.00
2018-07-02T04:36:07.316Z,13.10
2018-07-02T04:38:43.605Z,13.20
2018-07-02T04:41:23.024Z,13.30
2018-07-02T04:43:58.240Z,13.30
2018-07-02T04:46:32.801Z,13.40
2018-07-02T04:49:07.411Z,13.40
2018-07-02T04:51:42.253Z,13.50
2018-07-02T04:54:17.439Z,13.60
2018-07-02T04:56:51.763Z,13.60
2018-07-02T04:59:26.750Z,13.70
2018-07-02T05:02:03.407Z,13.80
2018-07-02T05:04:37.916Z,13.90
2018-07-02T05:07:13.860Z,13.90
2018-07-02T05:09:49.331Z,14.10
2018-07-02T05:12:23.732Z,14.10
2018-07-02T05:14:59.061Z,14.20
2018-07-02T05:17:36.587Z,14.20
2018-07-02T05:20:10.925Z,14.20
2018-07-02T05:22:45.400Z,14.30
2018-07-02T05:25:20.685Z,14.40
2018-07-02T05:27:57.204Z,14.60
2018-07-02T05:30:32.348Z,14.80
2018-07-02T05:33:09.385Z,14.90
2018-07-02T05:35:46.264Z,15.00
2018-07-02T05:38:20.585Z,15.10
2018-07-02T05:40:55.862Z,15.10
2018-07-02T05:43:30.135Z,15.20
2018-07-02T05:46:05.622Z,15.30
2018-07-02T05:48:40.710Z,15.30
2018-07-02T05:51:18.102Z,15.40
2018-07-02T05:53:53.504Z,15.50
2018-07-02T05:56:27.769Z,15.60
2018-07-02T05:59:02.359Z,15.60
2018-07-02T06:01:37.795Z,15.60
2018-07-02T06:04:12.161Z,15.60
2018-07-02T06:06:47.142Z,15.60
2018-07-02T06:09:21.557Z,15.70
2018-07-02T06:11:56.749Z,15.80
2018-07-02T06:14:31.569Z,15.80
2018-07-02T06:17:06.463Z,15.90
2018-07-02T06:19:40.863Z,15.90
2018-07-02T06:22:15.759Z,16.00
2018-07-02T06:24:50.565Z,16.10
2018-07-02T06:27:24.827Z,16.20
2018-07-02T06:29:59.039Z,16.40
2018-07-02T06:32:34.736Z,16.60
2018-07-02T06:35:09.043Z,16.70
2018-07-02T06:37:43.792Z,16.90
2018-07-02T06:40:19.502Z,17.00
2018-07-02T06:42:54.691Z,17.00
2018-07-02T06:45:29.528Z,17.00
2018-07-02T06:48:03.793Z,17.10
2018-07-02T06:50:38.714Z,17.20
2018-07-02T06:53:13.683Z,17.30
2018-07-02T06:55:48.001Z,17.30
2018-07-02T06:58:22.308Z,17.40
2018-07-02T07:00:56.791Z,17.40
2018-07-02T07:03:34.474Z,17.50
2018-07-02T07:06:13.189Z,17.60
2018-07-02T07:08:47.651Z,17.70
2018-07-02T07:11:22.743Z,17.80
2018-07-02T07:13:57.392Z,17.80
2018-07-02T07:16:31.742Z,17.90
2018-07-02T07:19:08.278Z,17.70
2018-07-02T07:21:43.690Z,17.80
2018-07-02T07:24:20.996Z,18.00
2018-07-02T07:26:56.826Z,18.10
2018-07-02T07:29:36.497Z,18.20
2018-07-02T07:32:14.326Z,18.30
2018-07-02T07:34:50.234Z,18.30
2018-07-02T07:37:26.697Z,18.10
2018-07-02T07:40:04.720Z,18.00
2018-07-02T07:42:45.121Z,18.00
2018-07-02T07:45:23.916Z,18.10
2018-07-02T07:47:59.207Z,18.40
2018-07-02T07:50:35.612Z,18.50
2018-07-02T07:53:10.198Z,18.70
2018-07-02T07:55:44.513Z,18.80
2018-07-02T07:58:19.427Z,18.90
2018-07-02T08:00:54.597Z,19.00
2018-07-02T08:03:30.214Z,19.10
2018-07-02T08:06:04.528Z,19.20
2018-07-02T08:08:40.105Z,19.30
2018-07-02T08:11:16.472Z,19.40
2018-07-02T08:13:51.358Z,19.50
2018-07-02T08:16:26.263Z,19.50
2018-07-02T08:19:01.423Z,19.50
2018-07-02T08:21:40.203Z,19.60
2018-07-02T08:24:15.235Z,19.40
2018-07-02T08:26:51.291Z,19.50
2018-07-02T08:29:26.807Z,19.60
2018-07-02T08:32:01.116Z,19.40
2018-07-02T08:34:37.491Z,19.30
2018-07-02T08:37:13.590Z,19.50
2018-07-02T08:39:53.635Z,19.40
2018-07-02T08:42:29.452Z,19.60
2018-07-02T08:45:05.070Z,19.70
2018-07-02T08:47:44.849Z,19.80
2018-07-02T08:50:20.584Z,19.90
2018-07-02T08:52:54.851Z,20.00
2018-07-02T08:55:29.459Z,20.10
2018-07-02T08:58:07.731Z,20.10
2018-07-02T09:00:44.306Z,20.10
2018-07-02T09:03:19.691Z,20.00
2018-07-02T09:05:54.232Z,20.00
2018-07-02T09:08:28.755Z,20.20
2018-07-02T09:11:04.809Z,20.30
2018-07-02T09:13:40.323Z,20.10
2018-07-02T09:16:19.609Z,20.00
2018-07-02T09:18:56.299Z,20.10
2018-07-02T09:21:31.135Z,20.20
2018-07-02T09:24:09.897Z,20.10
2018-07-02T09:26:45.065Z,20.10
2018-07-02T09:29:19.831Z,20.10
2018-07-02T09:31:56.244Z,20.20
2018-07-02T09:34:31.288Z,20.40
2018-07-02T09:37:07.428Z,20.50
2018-07-02T09:39:42.763Z,20.70
2018-07-02T09:42:17.868Z,20.80
2018-07-02T09:44:53.714Z,20.90
2018-07-02T09:47:29.797Z,20.80
2018-07-02T09:50:04.641Z,20.90
2018-07-02T09:52:41.930Z,20.70
2018-07-02T09:55:16.950Z,20.60
2018-07-02T09:57:51.201Z,20.50
2018-07-02T10:00:27.477Z,20.60
2018-07-02T10:03:02.708Z,20.70
2018-07-02T10:05:36.997Z,20.90
2018-07-02T10:08:11.664Z,20.90
2018-07-02T10:10:46.729Z,20.80
2018-07-02T10:13:23.904Z,20.70
2018-07-02T10:15:58.975Z,20.70
2018-07-02T10:18:37.368Z,20.80
2018-07-02T10:21:13.788Z,20.80
2018-07-02T10:23:50.795Z,20.90
2018-07-02T10:26:27.894Z,21.00
2018-07-02T10:29:05.672Z,21.30
2018-07-02T10:31:40.713Z,21.60
2018-07-02T10:34:16.121Z,21.80
2018-07-02T10:36:51.645Z,21.80
2018-07-02T10:39:25.879Z,21.80
2018-07-02T10:42:01.033Z,21.90
2018-07-02T10:44:42.200Z,22.00
2018-07-02T10:47:16.598Z,22.20
2018-07-02T10:49:52.268Z,22.20
2018-07-02T10:52:28.317Z,22.20
2018-07-02T10:55:03.150Z,22.20
2018-07-02T10:57:39.265Z,22.30
2018-07-02T11:00:19.366Z,22.30
2018-07-02T11:02:56.460Z,22.20
2018-07-02T11:05:31.434Z,22.10
2018-07-02T11:08:07.645Z,22.10
2018-07-02T11:10:43.903Z,22.10
2018-07-02T11:13:19.610Z,22.20
2018-07-02T11:15:55.732Z,22.30
2018-07-02T11:18:31.268Z,22.60
2018-07-02T11:21:06.828Z,22.80
2018-07-02T11:26:16.410Z,22.80
2018-07-02T11:28:52.104Z,22.90
2018-07-02T11:31:29.508Z,22.80
2018-07-02T11:34:06.236Z,23.00
2018-07-02T11:36:41.037Z,23.10
2018-07-02T11:39:16.549Z,23.30
2018-07-02T11:41:53.563Z,23.40
2018-07-02T11:44:29.212Z,23.50
2018-07-02T11:47:03.473Z,23.50
2018-07-02T11:49:38.521Z,23.40
2018-07-02T11:54:50.640Z,23.20
2018-07-02T11:57:26.459Z,23.20
2018-07-02T12:00:02.668Z,23.10
2018-07-02T12:02:40.037Z,23.30
2018-07-02T12:07:50.092Z,24.10
2018-07-02T12:10:24.478Z,24.60
2018-07-02T12:13:00.352Z,24.90
2018-07-02T12:15:37.532Z,25.00
2018-07-02T12:18:13.912Z,25.30
2018-07-02T12:20:53.001Z,25.80
2018-07-02T12:23:29.291Z,26.50
2018-07-02T12:26:04.462Z,27.30
2018-07-02T12:28:42.904Z,27.10
2018-07-02T12:31:18.718Z,27.40
2018-07-02T12:33:55.567Z,27.70
2018-07-02T12:36:33.113Z,28.40
2018-07-02T12:39:11.861Z,29.10
2018-07-02T12:41:47.708Z,29.90
2018-07-02T12:44:24.685Z,30.20
2018-07-02T12:47:00.953Z,30.40
2018-07-02T12:49:36.044Z,30.10
2018-07-02T12:52:14.899Z,29.80
2018-07-02T12:54:51.164Z,29.90
2018-07-02T12:57:26.890Z,30.40
2018-07-02T13:00:04.181Z,30.10
2018-07-02T13:02:46.329Z,30.30
2018-07-02T13:05:21.389Z,30.40
2018-07-02T13:07:58.932Z,31.20
2018-07-02T13:13:10.728Z,31.30
2018-07-02T13:15:48.810Z,32.10
2018-07-02T13:18:25.012Z,32.00
2018-07-02T13:21:00.749Z,32.30
2018-07-02T13:26:22.301Z,32.70
2018-07-02T13:31:46.384Z,32.40
2018-07-02T13:34:24.201Z,33.60
2018-07-02T13:37:05.265Z,34.40
2018-07-02T13:39:41.216Z,34.80
2018-07-02T13:42:30.333Z,35.30
2018-07-02T13:45:09.149Z,35.10
2018-07-02T13:47:46.421Z,36.00
2018-07-02T13:50:23.146Z,37.00
2018-07-02T13:53:01.797Z,37.90
2018-07-02T13:55:37.724Z,38.70
2018-07-02T13:58:15.609Z,39.30
2018-07-02T14:03:47.454Z,36.50
2018-07-02T14:06:23.274Z,35.70
2018-07-02T14:09:01.980Z,35.80
2018-07-02T14:11:37.816Z,37.20
2018-07-02T14:14:14.184Z,38.20
2018-07-02T14:16:54.698Z,39.00
2018-07-02T14:19:29.185Z,39.70
2018-07-02T14:22:06.044Z,39.80
2018-07-02T14:24:40.857Z,40.10
2018-07-02T14:27:17.057Z,39.10
2018-07-02T14:29:53.590Z,38.50
2018-07-02T14:32:33.233Z,38.90
2018-07-02T14:35:09.293Z,39.60
2018-07-02T14:37:44.332Z,40.30
2018-07-02T14:40:18.876Z,41.20
2018-07-02T14:42:53.699Z,40.50
2018-07-02T14:45:35.447Z,39.80
2018-07-02T14:48:11.857Z,39.50
2018-07-02T14:50:49.661Z,40.70
2018-07-02T14:53:25.268Z,42.00
2018-07-02T14:56:03.819Z,42.20
2018-07-02T14:58:41.574Z,42.90
2018-07-02T15:01:20.072Z,43.00
2018-07-02T15:03:54.854Z,42.80
2018-07-02T15:06:32.039Z,42.50
2018-07-02T15:09:12.943Z,42.90
2018-07-02T15:11:51.327Z,43.00
2018-07-02T15:14:27.700Z,43.60
2018-07-02T15:17:04.476Z,44.40
2018-07-02T15:19:38.712Z,44.50
2018-07-02T15:22:13.844Z,42.90
2018-07-02T15:24:49.299Z,42.80
2018-07-02T15:27:23.542Z,43.20
2018-07-02T15:30:01.100Z,43.90
2018-07-02T15:32:35.617Z,44.50
2018-07-02T15:35:10.540Z,44.50
2018-07-02T15:37:47.847Z,45.00
2018-07-02T15:40:22.621Z,45.90
2018-07-02T15:43:01.941Z,46.00
2018-07-02T15:45:37.343Z,46.10
2018-07-02T15:48:12.898Z,45.70
2018-07-02T15:50:51.078Z,46.10
2018-07-02T15:53:29.000Z,46.00
2018-07-02T15:56:06.692Z,46.20
2018-07-02T15:58:43.060Z,45.40
2018-07-02T16:01:23.705Z,45.90
2018-07-02T16:04:00.757Z,46.80
2018-07-02T16:06:36.128Z,46.60
2018-07-02T16:09:11.657Z,46.30
2018-07-02T16:11:48.995Z,45.40
2018-07-02T16:14:26.224Z,45.60
2018-07-02T16:17:00.493Z,46.30
2018-07-02T16:19:34.795Z,46.10
2018-07-02T16:22:10.524Z,45.20
2018-07-02T16:24:44.761Z,44.40
2018-07-02T16:27:19.074Z,44.10
2018-07-02T16:29:53.475Z,44.80
2018-07-02T16:32:28.351Z,44.30
2018-07-02T16:35:04.984Z,44.00
2018-07-02T16:37:39.278Z,44.40
2018-07-02T16:40:13.660Z,44.50
2018-07-02T16:42:48.287Z,44.40
2018-07-02T16:45:22.540Z,44.60
2018-07-02T16:47:58.108Z,44.00
2018-07-02T16:50:32.380Z,44.40
2018-07-02T16:53:07.287Z,44.00
2018-07-02T16:55:43.065Z,43.90
2018-07-02T16:58:19.630Z,44.70
2018-07-02T17:00:53.913Z,45.40
2018-07-02T17:03:29.778Z,46.10
2018-07-02T17:06:04.099Z,46.00
2018-07-02T17:08:38.428Z,45.00
2018-07-02T17:11:12.796Z,43.70
2018-07-02T17:13:47.127Z,44.00
2018-07-02T17:16:21.460Z,44.70
2018-07-02T17:18:56.418Z,45.40
2018-07-02T17:21:31.388Z,45.10
2018-07-02T17:24:06.050Z,45.10
2018-07-02T17:26:40.460Z,45.00
2018-07-02T17:29:15.683Z,45.30
2018-07-02T17:31:49.839Z,45.00
2018-07-02T17:34:24.452Z,44.70
2018-07-02T17:36:59.489Z,44.20
2018-07-02T17:39:34.685Z,43.20
2018-07-02T17:42:10.017Z,42.40
2018-07-02T17:44:44.690Z,42.00
2018-07-02T17:47:20.009Z,42.20
2018-07-02T17:52:32.849Z,42.80
2018-07-02T17:55:07.156Z,43.00
2018-07-02T17:57:41.611Z,43.10
2018-07-02T18:00:15.950Z,41.90
2018-07-02T18:02:50.866Z,41.00
2018-07-02T18:05:25.296Z,40.50
2018-07-02T18:08:00.441Z,40.70
2018-07-02T18:10:35.719Z,41.10
2018-07-02T18:13:10.372Z,41.00
2018-07-02T18:15:45.319Z,40.50
2018-07-02T18:18:20.644Z,40.40
2018-07-02T18:20:55.168Z,40.10
2018-07-02T18:26:03.634Z,39.50
2018-07-02T18:28:38.278Z,39.30
2018-07-02T18:31:13.239Z,39.10
2018-07-02T18:36:24.975Z,38.50
2018-07-02T18:38:59.382Z,38.20
2018-07-02T18:41:33.680Z,37.30
2018-07-02T18:44:08.322Z,36.30
2018-07-02T18:46:42.728Z,35.30
2018-07-02T18:49:16.871Z,34.00
2018-07-02T18:51:51.441Z,32.30
2018-07-02T18:54:26.408Z,31.00
2018-07-02T18:57:01.287Z,29.80
2018-07-02T18:59:35.554Z,28.70
2018-07-02T19:02:10.587Z,28.10
2018-07-02T19:04:45.446Z,27.50
2018-07-02T19:07:21.510Z,27.00
2018-07-02T19:09:56.425Z,26.70
2018-07-02T19:12:30.757Z,26.30
2018-07-02T19:15:05.933Z,26.00
2018-07-02T19:17:40.180Z,25.60
2018-07-02T19:20:14.958Z,25.40
2018-07-02T19:22:49.966Z,25.20
2018-07-02T19:25:24.627Z,25.00
2018-07-02T19:27:59.247Z,24.80
2018-07-02T19:30:34.324Z,24.60
2018-07-02T19:33:08.816Z,24.40
2018-07-02T19:35:44.126Z,24.20
2018-07-02T19:38:18.440Z,24.00
2018-07-02T19:40:52.698Z,23.90
2018-07-02T19:43:27.556Z,23.60
2018-07-02T19:46:02.088Z,23.50
2018-07-02T19:48:36.404Z,23.30
2018-07-02T19:51:11.120Z,23.20
2018-07-02T19:53:46.184Z,23.00
2018-07-02T19:56:20.623Z,22.70
2018-07-02T19:58:55.677Z,22.60
2018-07-02T20:01:30.824Z,22.40
2018-07-02T20:04:05.597Z,22.30
2018-07-02T20:06:41.555Z,22.10
2018-07-02T20:09:15.696Z,21.90
2018-07-02T20:11:50.568Z,21.80
2018-07-02T20:14:24.877Z,21.70
2018-07-02T20:17:01.560Z,21.60
2018-07-02T20:19:35.725Z,21.40
2018-07-02T20:22:11.175Z,21.30
2018-07-02T20:24:48.196Z,21.20
2018-07-02T20:27:23.132Z,21.10
2018-07-02T20:29:57.304Z,21.00
2018-07-02T20:32:31.827Z,20.90
2018-07-02T20:35:06.442Z,20.80
2018-07-02T20:37:41.701Z,20.70
2018-07-02T20:40:16.385Z,20.60
2018-07-02T20:42:51.473Z,20.50
2018-07-02T20:45:25.709Z,20.40
2018-07-02T20:48:01.310Z,20.30
2018-07-02T20:50:37.988Z,20.20
2018-07-02T20:53:13.067Z,20.20
2018-07-02T20:55:49.369Z,20.10
2018-07-02T20:58:23.666Z,19.90
2018-07-02T21:00:57.939Z,19.90
2018-07-02T21:03:33.892Z,19.80
2018-07-02T21:06:09.365Z,19.60
2018-07-02T21:08:44.064Z,19.50
2018-07-02T21:11:18.914Z,19.50
2018-07-02T21:13:53.892Z,19.40
2018-07-02T21:16:28.233Z,19.30
2018-07-02T21:19:02.633Z,19.30
2018-07-02T21:21:39.239Z,19.30
2018-07-02T21:24:13.617Z,19.20
2018-07-02T21:26:47.762Z,19.10
2018-07-02T21:29:22.091Z,19.00
2018-07-02T21:31:56.792Z,18.90
2018-07-02T21:34:31.418Z,18.90
2018-07-02T21:37:06.134Z,18.80
2018-07-02T21:39:41.582Z,18.70
2018-07-02T21:42:16.683Z,18.70
2018-07-02T21:47:26.277Z,18.50
2018-07-02T21:50:00.600Z,18.40
2018-07-02T21:52:36.105Z,18.40
2018-07-02T21:55:11.124Z,18.40
2018-07-02T21:57:52.339Z,18.50
2018-07-02T22:00:28.928Z,18.60
2018-07-02T22:03:08.067Z,18.60
2018-07-02T22:05:43.663Z,18.50
2018-07-02T22:08:38.045Z,18.40
2018-07-02T22:11:13.806Z,18.30
2018-07-02T22:13:48.469Z,18.20
2018-07-02T22:16:29.700Z,18.10
2018-07-02T22:19:09.539Z,18.00
2018-07-02T22:21:45.080Z,17.90
2018-07-02T22:24:26.753Z,17.80
2018-07-02T22:27:02.696Z,17.70
2018-07-02T22:29:39.199Z,17.70
2018-07-02T22:32:15.909Z,17.60
2018-07-02T22:34:51.085Z,17.60
2018-07-02T22:37:26.725Z,17.60
2018-07-02T22:40:02.994Z,17.50
2018-07-02T23:00:47.390Z,17.00
2018-07-02T23:03:30.700Z,17.00
2018-07-02T23:06:08.608Z,16.90
2018-07-02T23:08:50.117Z,16.90
2018-07-02T23:11:27.277Z,16.80
2018-07-02T23:14:03.176Z,16.80
2018-07-02T23:16:38.392Z,16.70
2018-07-02T23:19:14.847Z,16.70
2018-07-02T23:21:53.812Z,16.60
2018-07-02T23:24:29.151Z,16.50
2018-07-02T23:27:03.372Z,16.50
2018-07-02T23:29:40.976Z,16.40
2018-07-02T23:32:16.603Z,16.40
2018-07-02T23:34:52.012Z,16.30
2018-07-02T23:37:32.063Z,16.30
2018-07-02T23:40:08.696Z,16.20
2018-07-02T23:42:43.236Z,16.20
2018-07-02T23:45:22.159Z,16.10
2018-07-02T23:47:56.905Z,16.00
2018-07-02T23:50:31.927Z,16.00
2018-07-02T23:53:06.226Z,16.00
2018-07-02T23:58:20.561Z,15.90
